Time;durP1;ratioP1;P1;durP2;ratioP2;P2;SDS_P1;SDS_P2;PMS_P1;PMS_P2;Temp;Humidity;BMP_temperature;BMP_pressure;BME280_temperature;BME280_humidity;BME280_pressure;Samples;Min_cycle;Max_cycle;Signal;HPM_P1;HPM_P2
2022/08/28 00:00:14;;;;;;;15.30;11.03;;;16.80;98.00;;;;;;4974528;28;20188;-88
2022/08/28 00:03:04;;;;;;;17.53;12.37;;;16.70;98.80;;;;;;4973183;28;20209;-87
2022/08/28 00:05:33;;;;;;;13.90;11.53;;;16.80;99.20;;;;;;4974277;28;20204;-89
2022/08/28 00:08:02;;;;;;;14.00;10.73;;;16.80;99.00;;;;;;4970982;28;20224;-88
2022/08/28 00:10:33;;;;;;;13.93;11.20;;;16.70;99.20;;;;;;4962476;28;20235;-86
2022/08/28 00:13:06;;;;;;;14.93;11.13;;;16.70;98.90;;;;;;4964073;28;20456;-86
2022/08/28 00:15:38;;;;;;;17.30;11.47;;;16.70;99.80;;;;;;4965257;28;21093;-88
2022/08/28 00:18:07;;;;;;;14.93;11.37;;;16.70;99.80;;;;;;4947931;28;20201;-86
2022/08/28 00:20:37;;;;;;;14.93;11.20;;;16.60;99.90;;;;;;4950841;28;20205;-87
2022/08/28 00:23:10;;;;;;;18.00;11.23;;;16.60;99.90;;;;;;4947223;28;20413;-86
2022/08/28 00:25:40;;;;;;;16.47;11.57;;;16.60;99.90;;;;;;4952512;28;20217;-88
2022/08/28 00:28:10;;;;;;;20.37;10.93;;;16.50;99.90;;;;;;4954196;28;20341;-85
2022/08/28 00:30:57;;;;;;;15.90;11.13;;;16.50;99.90;;;;;;4957089;28;20324;-87
2022/08/28 00:33:31;;;;;;;13.67;11.10;;;16.50;99.90;;;;;;4949970;28;20687;-87
2022/08/28 00:36:02;;;;;;;14.73;11.13;;;16.50;99.90;;;;;;4949067;28;20228;-86
2022/08/28 00:38:31;;;;;;;18.93;11.13;;;16.50;99.90;;;;;;4949250;28;20204;-88
2022/08/28 00:41:03;;;;;;;16.30;10.50;;;16.30;99.90;;;;;;4962119;28;20193;-86
2022/08/28 00:43:37;;;;;;;12.83;10.13;;;16.50;99.90;;;;;;4957224;28;20197;-87
2022/08/28 00:46:11;;;;;;;14.87;11.57;;;16.50;99.90;;;;;;4968345;28;20201;-87
2022/08/28 00:48:42;;;;;;;15.73;10.53;;;16.50;99.90;;;;;;4963873;28;20194;-88
2022/08/28 00:53:59;;;;;;;17.30;11.23;;;16.40;99.90;;;;;;4965372;28;20231;-88
2022/08/28 00:56:38;;;;;;;13.77;10.80;;;16.30;99.90;;;;;;4969707;28;20657;-89
2022/08/28 00:59:14;;;;;;;15.17;10.90;;;16.30;99.90;;;;;;4970155;28;20228;-88
2022/08/28 01:01:44;;;;;;;16.87;11.40;;;16.30;99.90;;;;;;4967812;28;20544;-87
2022/08/28 01:04:15;;;;;;;13.43;10.87;;;16.20;99.90;;;;;;4969745;28;20291;-87
2022/08/28 01:06:47;;;;;;;15.10;11.40;;;16.20;99.90;;;;;;4969135;28;20460;-87
2022/08/28 01:09:16;;;;;;;18.30;11.73;;;16.20;99.90;;;;;;4967272;28;20217;-86
2022/08/28 01:11:53;;;;;;;14.47;10.90;;;16.10;99.90;;;;;;4965398;28;20197;-88
2022/08/28 01:14:23;;;;;;;17.20;11.53;;;16.10;99.90;;;;;;4976830;28;20471;-88
2022/08/28 01:16:54;;;;;;;14.57;11.40;;;16.10;99.90;;;;;;4970375;28;20849;-87
2022/08/28 01:19:31;;;;;;;13.37;11.00;;;16.00;99.90;;;;;;4960367;28;20215;-88
2022/08/28 01:22:12;;;;;;;13.83;11.33;;;15.90;99.90;;;;;;4972232;28;20185;-87
2022/08/28 01:24:45;;;;;;;13.47;10.93;;;15.90;99.90;;;;;;4970499;28;20212;-86
2022/08/28 01:27:13;;;;;;;17.90;10.93;;;15.90;99.90;;;;;;4974175;28;20354;-87
2022/08/28 01:29:43;;;;;;;13.17;11.13;;;15.90;99.90;;;;;;4968461;28;20192;-88
2022/08/28 01:32:27;;;;;;;13.83;10.43;;;15.80;99.90;;;;;;4972212;28;20256;-87
2022/08/28 01:34:57;;;;;;;13.93;11.10;;;15.80;99.90;;;;;;4976620;28;20196;-87
2022/08/28 01:37:27;;;;;;;15.47;10.93;;;15.80;99.90;;;;;;4968410;28;20256;-88
2022/08/28 01:40:00;;;;;;;17.00;11.00;;;15.70;99.90;;;;;;4970121;28;20197;-88
2022/08/28 01:42:29;;;;;;;14.87;11.50;;;15.70;99.90;;;;;;4954511;28;20208;-88
2022/08/28 01:44:58;;;;;;;13.77;10.07;;;15.70;99.90;;;;;;4949116;28;20284;-86
2022/08/28 01:47:27;;;;;;;13.63;11.03;;;15.70;99.90;;;;;;4945125;28;20218;-85
2022/08/28 01:49:56;;;;;;;13.50;10.60;;;15.70;99.90;;;;;;4943531;28;20276;-87
2022/08/28 01:52:24;;;;;;;16.20;10.97;;;15.60;99.90;;;;;;4946755;28;20201;-86
2022/08/28 01:54:54;;;;;;;16.63;11.80;;;15.60;99.90;;;;;;4942774;28;20216;-87
2022/08/28 01:57:26;;;;;;;15.57;11.00;;;15.60;99.90;;;;;;4971563;28;20213;-87
2022/08/28 01:59:55;;;;;;;12.53;10.93;;;15.60;99.90;;;;;;4968169;28;20272;-87
2022/08/28 02:02:25;;;;;;;16.93;11.23;;;15.50;99.90;;;;;;4969750;28;20217;-87
2022/08/28 02:04:54;;;;;;;17.10;11.87;;;15.50;99.90;;;;;;4971375;28;20858;-86
2022/08/28 02:07:23;;;;;;;19.40;12.33;;;15.50;99.90;;;;;;4968859;28;20216;-87
2022/08/28 02:09:51;;;;;;;13.30;10.90;;;15.50;99.90;;;;;;4968241;28;20260;-88
2022/08/28 02:12:20;;;;;;;18.60;11.43;;;15.50;99.90;;;;;;4969178;28;20206;-87
2022/08/28 02:14:50;;;;;;;15.37;11.80;;;15.50;99.90;;;;;;4972412;28;20262;-87
2022/08/28 02:17:19;;;;;;;17.33;12.10;;;15.50;99.90;;;;;;4971725;28;20244;-86
2022/08/28 02:19:48;;;;;;;15.93;11.93;;;15.40;99.90;;;;;;4966034;28;20208;-87
2022/08/28 02:22:17;;;;;;;14.87;11.83;;;15.40;99.90;;;;;;4979308;28;20204;-87
2022/08/28 02:24:45;;;;;;;18.77;13.27;;;15.40;99.90;;;;;;4979469;28;20204;-87
2022/08/28 02:27:14;;;;;;;20.50;13.43;;;15.40;99.90;;;;;;4976195;28;20199;-86
2022/08/28 02:29:43;;;;;;;18.47;13.30;;;15.30;99.90;;;;;;4975392;28;20197;-86
2022/08/28 02:32:13;;;;;;;15.90;12.00;;;15.30;99.90;;;;;;4978446;28;20358;-87
2022/08/28 02:34:42;;;;;;;20.33;12.73;;;15.40;99.90;;;;;;4978412;28;20292;-87
2022/08/28 02:37:12;;;;;;;20.80;13.73;;;15.30;99.90;;;;;;4973773;28;20234;-87
2022/08/28 02:39:41;;;;;;;19.03;13.83;;;15.30;99.90;;;;;;4975499;28;20205;-88
2022/08/28 02:42:10;;;;;;;20.30;13.20;;;15.30;99.90;;;;;;4976142;28;20189;-88
2022/08/28 02:44:39;;;;;;;25.17;14.97;;;15.30;99.90;;;;;;4975119;28;20205;-88
2022/08/28 02:47:08;;;;;;;19.77;13.77;;;15.20;99.90;;;;;;4977444;28;20255;-87
2022/08/28 02:49:38;;;;;;;22.37;14.27;;;15.20;99.90;;;;;;4972341;28;20225;-89
2022/08/28 02:52:07;;;;;;;19.43;14.70;;;15.20;99.90;;;;;;4976797;28;20197;-87
2022/08/28 02:54:38;;;;;;;21.37;14.63;;;15.20;99.90;;;;;;4973873;28;20213;-87
2022/08/28 02:57:08;;;;;;;25.33;14.97;;;15.20;99.90;;;;;;4960603;28;20276;-86
2022/08/28 02:59:37;;;;;;;21.07;14.83;;;15.40;99.90;;;;;;4972162;28;20265;-86
2022/08/28 03:02:06;;;;;;;21.10;13.80;;;15.20;99.90;;;;;;4964622;28;20193;-88
2022/08/28 03:04:36;;;;;;;25.07;14.37;;;15.20;99.90;;;;;;4967056;28;20200;-85
2022/08/28 03:07:08;;;;;;;18.53;14.20;;;15.20;99.90;;;;;;4969384;28;20328;-88
2022/08/28 03:09:40;;;;;;;19.90;14.10;;;15.20;99.90;;;;;;4966787;28;20205;-88
2022/08/28 03:12:11;;;;;;;25.93;13.73;;;15.20;99.90;;;;;;4965620;28;20193;-88
2022/08/28 03:14:41;;;;;;;17.10;13.53;;;15.20;99.90;;;;;;4965449;28;20197;-87
2022/08/28 03:17:10;;;;;;;22.03;13.53;;;15.10;99.90;;;;;;4967335;28;20232;-86
2022/08/28 03:19:39;;;;;;;20.67;12.80;;;15.10;99.90;;;;;;4969167;28;20801;-88
2022/08/28 03:22:10;;;;;;;19.33;13.30;;;15.00;99.90;;;;;;4974558;28;20201;-86
2022/08/28 03:24:38;;;;;;;16.27;12.30;;;15.00;99.90;;;;;;4977811;28;20205;-85
2022/08/28 03:27:07;;;;;;;23.90;12.73;;;14.90;99.90;;;;;;4969121;28;20209;-86
2022/08/28 03:29:37;;;;;;;17.47;12.70;;;14.90;99.90;;;;;;4971936;28;20200;-86
2022/08/28 03:32:06;;;;;;;20.80;12.50;;;15.00;99.90;;;;;;4974824;28;20269;-86
2022/08/28 03:34:34;;;;;;;16.60;11.80;;;14.90;99.90;;;;;;4972052;28;20252;-87
2022/08/28 03:37:04;;;;;;;20.50;12.87;;;15.00;99.90;;;;;;4972630;28;20232;-87
2022/08/28 03:39:34;;;;;;;16.07;11.70;;;15.00;99.90;;;;;;4969473;28;20314;-87
2022/08/28 03:42:03;;;;;;;16.50;12.20;;;15.00;99.90;;;;;;4979697;28;20194;-88
2022/08/28 03:44:33;;;;;;;19.47;12.77;;;15.00;99.90;;;;;;4974606;28;20224;-87
2022/08/28 03:47:02;;;;;;;18.23;13.03;;;15.00;99.90;;;;;;4976680;28;20269;-87
2022/08/28 03:49:31;;;;;;;15.90;11.50;;;14.90;99.90;;;;;;4963182;28;20201;-88
2022/08/28 03:52:00;;;;;;;16.20;12.70;;;14.90;99.90;;;;;;4955358;28;20206;-86
2022/08/28 03:54:30;;;;;;;16.77;12.37;;;15.00;99.90;;;;;;4953382;28;20201;-86
2022/08/28 03:57:01;;;;;;;16.93;12.90;;;15.00;99.90;;;;;;4952699;28;20197;-86
2022/08/28 03:59:30;;;;;;;16.90;12.60;;;14.90;99.90;;;;;;4949760;28;20212;-89
2022/08/28 04:02:00;;;;;;;15.70;12.27;;;15.00;99.90;;;;;;4951697;28;20682;-87
2022/08/28 04:04:29;;;;;;;17.43;12.80;;;15.00;99.90;;;;;;4964509;28;20200;-86
2022/08/28 04:06:58;;;;;;;15.40;12.30;;;15.00;99.90;;;;;;4973984;28;20200;-88
2022/08/28 04:09:27;;;;;;;15.17;11.63;;;15.00;99.90;;;;;;4964714;28;20281;-87
2022/08/28 04:11:55;;;;;;;18.70;12.53;;;15.00;99.90;;;;;;4973085;28;20197;-87
2022/08/28 04:14:26;;;;;;;16.27;12.27;;;15.00;99.90;;;;;;4968989;28;20205;-87
2022/08/28 04:16:55;;;;;;;15.83;12.13;;;15.00;99.90;;;;;;4974185;28;20193;-87
2022/08/28 04:19:29;;;;;;;14.60;11.83;;;15.10;99.90;;;;;;4966583;28;20237;-86
2022/08/28 04:21:58;;;;;;;15.57;12.43;;;15.10;99.90;;;;;;4972338;28;20201;-87
2022/08/28 04:24:27;;;;;;;17.80;12.73;;;15.20;99.90;;;;;;4977412;28;20920;-88
2022/08/28 04:26:56;;;;;;;16.37;12.47;;;15.20;99.90;;;;;;4969609;28;20213;-87
2022/08/28 04:29:30;;;;;;;18.10;12.60;;;15.30;99.90;;;;;;4959715;28;20205;-87
2022/08/28 04:31:59;;;;;;;18.67;12.63;;;15.40;99.90;;;;;;4959646;28;20205;-85
2022/08/28 04:34:28;;;;;;;21.13;12.67;;;15.50;99.90;;;;;;4947970;28;20201;-87
2022/08/28 04:36:58;;;;;;;18.67;12.43;;;15.60;99.90;;;;;;4954865;28;20208;-87
2022/08/28 04:39:27;;;;;;;18.13;13.30;;;15.70;99.90;;;;;;4962129;28;20227;-87
2022/08/28 04:41:56;;;;;;;15.13;11.70;;;15.80;99.90;;;;;;4964160;28;20898;-87
2022/08/28 04:44:26;;;;;;;14.63;11.87;;;15.80;99.90;;;;;;4948552;28;20754;-85
2022/08/28 04:46:56;;;;;;;13.60;10.77;;;16.00;99.90;;;;;;4948829;28;20284;-87
2022/08/28 04:49:28;;;;;;;16.77;11.33;;;16.10;99.90;;;;;;4950545;28;20216;-87
2022/08/28 04:51:57;;;;;;;14.83;11.57;;;16.30;99.90;;;;;;4948682;28;20324;-87
2022/08/28 04:54:26;;;;;;;14.17;11.67;;;16.30;99.90;;;;;;4959504;28;20205;-87
2022/08/28 04:56:55;;;;;;;16.80;11.87;;;16.50;99.90;;;;;;4959845;28;20209;-88
2022/08/28 04:59:24;;;;;;;13.10;11.60;;;16.60;99.90;;;;;;4958299;28;20243;-86
2022/08/28 05:01:55;;;;;;;14.97;11.50;;;16.80;99.90;;;;;;4960479;28;20256;-86
2022/08/28 05:04:25;;;;;;;12.90;10.77;;;16.90;98.90;;;;;;4960005;28;20200;-87
2022/08/28 05:06:54;;;;;;;18.90;12.17;;;17.10;97.40;;;;;;4960076;28;20312;-86
2022/08/28 05:09:23;;;;;;;12.97;11.07;;;17.30;94.40;;;;;;4957863;28;20285;-86
2022/08/28 05:11:53;;;;;;;17.53;10.57;;;17.60;94.10;;;;;;4976378;28;20221;-86
2022/08/28 05:14:22;;;;;;;14.57;11.00;;;17.80;93.60;;;;;;4966042;28;20201;-86
2022/08/28 05:16:55;;;;;;;13.73;9.97;;;18.00;93.00;;;;;;4968154;28;20208;-86
2022/08/28 05:19:28;;;;;;;11.87;10.20;;;18.20;92.90;;;;;;4968350;28;20228;-87
2022/08/28 05:21:57;;;;;;;14.40;9.23;;;18.40;92.70;;;;;;4969156;28;20217;-87
2022/08/28 05:24:26;;;;;;;11.80;9.23;;;18.60;91.20;;;;;;4972273;28;20196;-88
2022/08/28 05:26:56;;;;;;;13.17;9.67;;;18.70;90.80;;;;;;4970160;28;20470;-89
2022/08/28 05:29:25;;;;;;;12.27;10.10;;;18.80;90.50;;;;;;4971373;28;20260;-87
2022/08/28 05:31:55;;;;;;;12.23;10.73;;;18.90;91.10;;;;;;4974312;28;20185;-87
2022/08/28 05:34:25;;;;;;;13.87;9.77;;;19.00;91.60;;;;;;4971955;28;20208;-87
2022/08/28 05:36:54;;;;;;;12.63;9.93;;;19.00;92.20;;;;;;4976748;28;20216;-87
2022/08/28 05:39:23;;;;;;;13.50;9.30;;;19.10;92.10;;;;;;4968529;28;20225;-86
2022/08/28 05:41:52;;;;;;;13.97;9.03;;;19.10;91.30;;;;;;4965780;28;20279;-89
2022/08/28 05:44:21;;;;;;;13.97;9.27;;;19.30;90.90;;;;;;4952779;28;20216;-87
2022/08/28 05:46:50;;;;;;;12.77;9.07;;;19.40;90.50;;;;;;4960166;28;20474;-86
2022/08/28 05:49:19;;;;;;;13.10;9.13;;;19.60;90.10;;;;;;4972483;28;20216;-92
2022/08/28 05:51:51;;;;;;;14.63;9.33;;;19.60;90.10;;;;;;4957801;28;20208;-90
2022/08/28 05:54:20;;;;;;;13.20;9.13;;;19.70;89.90;;;;;;4954644;28;20240;-87
2022/08/28 05:56:49;;;;;;;12.03;8.50;;;19.80;89.30;;;;;;4958411;28;20208;-88
2022/08/28 05:59:18;;;;;;;11.33;8.87;;;19.90;88.20;;;;;;4956470;28;20228;-86
2022/08/28 06:01:49;;;;;;;11.83;9.50;;;19.80;88.10;;;;;;4956353;28;20255;-91
2022/08/28 06:04:22;;;;;;;11.80;9.33;;;19.90;88.30;;;;;;4948741;28;20212;-88
2022/08/28 06:06:53;;;;;;;14.77;9.40;;;20.00;88.50;;;;;;4949102;28;20849;-89
2022/08/28 06:09:26;;;;;;;11.30;8.90;;;20.10;88.20;;;;;;4941830;28;20227;-90
2022/08/28 06:12:01;;;;;;;14.20;8.87;;;20.30;88.20;;;;;;4951028;28;20208;-87
2022/08/28 06:14:31;;;;;;;11.93;9.17;;;20.40;88.20;;;;;;4947670;28;20212;-87
2022/08/28 06:17:03;;;;;;;13.73;9.47;;;20.50;88.00;;;;;;4947573;28;20212;-87
2022/08/28 06:19:33;;;;;;;11.33;9.00;;;20.70;87.30;;;;;;4954036;28;20426;-87
2022/08/28 06:22:13;;;;;;;12.00;9.00;;;20.80;87.10;;;;;;4962722;28;20193;-89
2022/08/28 06:24:42;;;;;;;11.37;8.97;;;20.90;87.10;;;;;;4949504;28;20266;-89
2022/08/28 06:27:14;;;;;;;11.50;8.67;;;21.10;86.70;;;;;;4946693;28;20320;-87
2022/08/28 06:29:44;;;;;;;13.57;9.47;;;21.20;86.40;;;;;;4947199;28;20224;-88
2022/08/28 06:32:15;;;;;;;11.40;9.30;;;21.40;85.60;;;;;;4949439;28;20213;-87
2022/08/28 06:34:44;;;;;;;10.97;9.17;;;21.50;85.50;;;;;;4942033;28;20701;-89
2022/08/28 06:37:16;;;;;;;14.60;9.50;;;21.60;85.20;;;;;;4948553;28;20864;-87
2022/08/28 06:39:44;;;;;;;13.05;9.80;;;21.60;84.90;;;;;;4946676;28;20409;-87
2022/08/28 06:42:13;;;;;;;10.90;9.47;;;21.70;84.70;;;;;;4946229;28;20205;-88
2022/08/28 06:44:43;;;;;;;12.38;9.48;;;21.80;84.80;;;;;;4955904;28;20307;-88
2022/08/28 06:47:14;;;;;;;9.80;8.52;;;21.90;84.60;;;;;;4956754;28;20204;-88
2022/08/28 06:49:46;;;;;;;13.75;9.20;;;22.10;84.70;;;;;;4950439;28;20210;-87
2022/08/28 06:52:17;;;;;;;13.43;9.32;;;22.20;84.70;;;;;;4948141;28;20210;-89
2022/08/28 06:54:47;;;;;;;13.55;9.30;;;22.30;84.50;;;;;;4957077;28;20308;-86
2022/08/28 06:57:24;;;;;;;13.80;9.38;;;22.40;84.30;;;;;;4960503;28;20213;-87
2022/08/28 06:59:56;;;;;;;13.70;9.38;;;22.50;84.30;;;;;;4946747;28;20240;-89
2022/08/28 07:02:25;;;;;;;13.18;9.68;;;22.70;84.10;;;;;;4948005;28;20597;-88
2022/08/28 07:04:56;;;;;;;16.75;10.02;;;22.80;83.80;;;;;;4955315;28;20228;-88
2022/08/28 07:07:26;;;;;;;17.73;9.57;;;23.00;83.60;;;;;;4955052;28;20241;-88
2022/08/28 07:10:00;;;;;;;12.27;9.25;;;23.10;83.60;;;;;;4959708;28;20217;-88
2022/08/28 07:12:29;;;;;;;12.75;9.30;;;23.30;83.70;;;;;;4958423;28;20627;-88
2022/08/28 07:14:58;;;;;;;18.05;9.88;;;23.40;83.40;;;;;;4953215;28;20367;-89
2022/08/28 07:17:27;;;;;;;11.98;9.43;;;23.50;83.30;;;;;;4946641;28;20264;-88
2022/08/28 07:19:57;;;;;;;14.05;9.60;;;23.60;83.60;;;;;;4966268;28;20219;-88
2022/08/28 07:22:30;;;;;;;13.70;9.20;;;23.70;83.40;;;;;;4952396;28;20299;-90
2022/08/28 07:25:00;;;;;;;14.43;10.15;;;23.90;83.80;;;;;;4949957;28;20205;-87
2022/08/28 07:27:29;;;;;;;12.85;9.43;;;24.00;83.60;;;;;;4951617;28;20373;-88
2022/08/28 07:29:58;;;;;;;15.68;9.82;;;24.10;83.50;;;;;;4954666;28;20205;-86
2022/08/28 07:32:27;;;;;;;14.65;10.02;;;24.10;83.50;;;;;;4960941;28;20228;-89
2022/08/28 07:34:57;;;;;;;14.32;9.10;;;24.10;83.70;;;;;;4969727;28;20209;-89
2022/08/28 07:37:27;;;;;;;16.30;9.90;;;24.10;83.80;;;;;;4964394;28;20205;-87
2022/08/28 07:40:05;;;;;;;13.40;9.98;;;24.30;83.60;;;;;;4954504;28;20503;-87
2022/08/28 07:45:23;;;;;;;11.95;8.75;;;24.70;83.30;;;;;;4942068;28;20412;-86
2022/08/28 07:47:51;;;;;;;11.57;9.45;;;24.80;83.10;;;;;;4930773;28;21041;-89
2022/08/28 07:50:23;;;;;;;13.52;9.65;;;25.00;83.00;;;;;;4940162;28;20212;-90
2022/08/28 07:52:54;;;;;;;14.75;9.32;;;25.00;83.10;;;;;;4940402;28;20316;-88
2022/08/28 07:55:26;;;;;;;13.25;9.45;;;25.10;82.90;;;;;;4940537;28;20225;-88
2022/08/28 07:57:56;;;;;;;12.05;9.07;;;25.30;82.80;;;;;;4932980;28;20667;-88
2022/08/28 08:00:25;;;;;;;11.48;9.05;;;25.30;83.10;;;;;;4941174;28;20474;-85
2022/08/28 08:02:54;;;;;;;12.82;10.10;;;25.30;82.80;;;;;;4955753;28;20277;-87
2022/08/28 08:05:23;;;;;;;13.63;9.32;;;25.50;82.70;;;;;;4948157;28;20210;-86
2022/08/28 08:07:53;;;;;;;14.05;9.25;;;25.50;82.80;;;;;;4939025;28;20201;-85
2022/08/28 08:10:26;;;;;;;13.75;9.65;;;25.70;82.80;;;;;;4942157;28;20224;-88
2022/08/28 08:13:01;;;;;;;11.85;9.30;;;25.80;82.10;;;;;;4940015;28;20227;-85
2022/08/28 08:15:34;;;;;;;12.32;9.32;;;25.90;82.50;;;;;;4920663;29;20918;-86
2022/08/28 08:18:02;;;;;;;11.95;8.90;;;25.90;82.40;;;;;;4919348;29;21227;-87
2022/08/28 08:20:32;;;;;;;11.63;9.40;;;25.90;82.30;;;;;;4927659;29;20568;-84
2022/08/28 08:23:05;;;;;;;10.25;8.45;;;26.00;82.60;;;;;;4933435;28;20825;-88
2022/08/28 08:25:35;;;;;;;11.77;8.48;;;26.10;82.30;;;;;;4929439;29;20257;-88
2022/08/28 08:28:04;;;;;;;15.35;8.70;;;26.20;81.70;;;;;;4927498;29;20556;-86
2022/08/28 08:30:33;;;;;;;12.95;9.07;;;26.20;81.80;;;;;;4932271;29;20327;-85
2022/08/28 08:33:03;;;;;;;10.68;8.52;;;26.20;81.90;;;;;;4924007;29;20206;-89
2022/08/28 08:35:31;;;;;;;11.45;8.50;;;26.20;81.10;;;;;;4918304;29;20261;-86
2022/08/28 08:38:00;;;;;;;13.52;8.20;;;26.40;80.90;;;;;;4923504;28;20230;-89
2022/08/28 08:40:34;;;;;;;16.45;8.75;;;26.50;80.40;;;;;;4931014;29;20372;-89
2022/08/28 08:43:03;;;;;;;10.65;8.60;;;26.60;79.80;;;;;;4915248;29;20293;-87
2022/08/28 08:45:35;;;;;;;10.13;8.05;;;26.80;80.30;;;;;;4929417;29;20233;-88
2022/08/28 08:48:04;;;;;;;16.45;8.25;;;27.00;79.90;;;;;;4923684;29;20350;-86
2022/08/28 08:50:35;;;;;;;13.93;7.35;;;27.00;79.30;;;;;;4925445;29;20350;-88
2022/08/28 08:56:27;;;;;;;12.45;7.53;;;27.30;78.30;;;;;;4864238;26;20232;-89
2022/08/28 08:59:12;;;;;;;11.80;7.60;;;27.40;77.80;;;;;;4939683;28;20210;-88
2022/08/28 09:04:52;;;;;;;11.73;7.47;;;27.60;76.50;;;;;;5100285;23;20237;-89
2022/08/28 09:07:31;;;;;;;10.25;7.32;;;27.60;76.00;;;;;;4932053;28;20210;-86
2022/08/28 09:10:00;;;;;;;12.10;7.32;;;27.60;76.00;;;;;;4938888;28;20294;-85
2022/08/28 09:12:34;;;;;;;11.27;7.65;;;27.60;76.20;;;;;;4947936;28;20217;-86
2022/08/28 09:15:11;;;;;;;10.73;7.22;;;27.60;76.20;;;;;;4936730;28;20185;-88
2022/08/28 09:17:45;;;;;;;14.52;7.88;;;27.70;76.20;;;;;;4942256;28;20213;-86
2022/08/28 09:20:22;;;;;;;10.88;7.65;;;27.80;75.70;;;;;;4943141;28;20808;-87
2022/08/28 09:23:01;;;;;;;10.25;7.18;;;27.90;75.50;;;;;;4940457;28;20218;-87
2022/08/28 09:25:52;;;;;;;12.13;7.03;;;28.00;74.90;;;;;;4938953;28;20216;-87
2022/08/28 09:31:48;;;;;;;9.52;7.57;;;28.10;74.60;;;;;;4920393;29;20254;-89
2022/08/28 09:34:24;;;;;;;9.13;7.10;;;28.30;73.60;;;;;;4926664;28;20211;-87
2022/08/28 09:36:57;;;;;;;9.15;7.00;;;28.30;73.20;;;;;;4912560;29;20278;-88
2022/08/28 09:39:28;;;;;;;12.88;7.57;;;28.20;73.10;;;;;;4920069;29;20222;-88
2022/08/28 09:45:01;;;;;;;9.95;7.07;;;28.40;73.00;;;;;;4915875;29;21420;-87
2022/08/28 09:47:48;;;;;;;10.55;7.05;;;28.50;72.60;;;;;;4914536;29;20813;-87
2022/08/28 09:50:28;;;;;;;12.25;7.40;;;28.50;72.20;;;;;;4921431;29;20210;-89
2022/08/28 09:53:00;;;;;;;10.23;7.70;;;28.60;72.70;;;;;;4922617;29;20198;-87
2022/08/28 09:55:40;;;;;;;8.75;7.15;;;28.60;72.10;;;;;;4920010;29;20210;-87
2022/08/28 09:58:10;;;;;;;7.53;6.53;;;28.60;72.00;;;;;;4909849;29;20423;-89
2022/08/28 10:00:53;;;;;;;9.30;6.85;;;28.60;71.60;;;;;;4919766;29;20236;-89
2022/08/28 10:03:30;;;;;;;11.52;7.22;;;28.50;71.90;;;;;;4913519;29;20269;-87
2022/08/28 10:06:08;;;;;;;10.98;6.88;;;28.60;71.40;;;;;;4906983;29;20684;-87
2022/08/28 10:08:54;;;;;;;9.38;6.80;;;28.60;71.10;;;;;;4898629;29;20218;-88
2022/08/28 10:11:31;;;;;;;11.45;6.63;;;28.60;71.00;;;;;;4903964;29;20211;-85
2022/08/28 10:14:09;;;;;;;9.85;6.90;;;28.60;70.80;;;;;;4921390;29;21040;-86
2022/08/28 10:16:52;;;;;;;10.63;6.88;;;28.70;70.80;;;;;;4920300;29;20214;-87
2022/08/28 10:19:39;;;;;;;10.82;6.40;;;28.80;71.10;;;;;;4920945;28;20850;-88
2022/08/28 10:22:20;;;;;;;11.82;6.90;;;28.80;70.40;;;;;;4912392;29;20239;-85
2022/08/28 10:25:07;;;;;;;11.65;6.53;;;28.80;69.80;;;;;;4917243;29;20224;-87
2022/08/28 10:27:49;;;;;;;9.25;6.35;;;28.80;69.20;;;;;;4921506;28;20700;-88
2022/08/28 10:30:21;;;;;;;9.20;6.32;;;28.80;68.30;;;;;;4950113;28;20227;-86
2022/08/28 10:33:18;;;;;;;9.90;6.07;;;28.90;68.50;;;;;;4933206;28;20296;-87
2022/08/28 10:35:56;;;;;;;9.25;6.30;;;29.00;66.90;;;;;;4940309;28;20244;-88
2022/08/28 10:38:38;;;;;;;8.80;6.40;;;28.90;67.00;;;;;;4929517;28;20316;-89
2022/08/28 10:41:12;;;;;;;9.38;6.43;;;28.80;66.50;;;;;;4931695;29;21385;-89
2022/08/28 10:43:46;;;;;;;10.73;6.30;;;28.70;67.30;;;;;;4926451;28;20838;-85
2022/08/28 10:46:19;;;;;;;8.18;6.25;;;28.70;68.20;;;;;;4938017;28;20202;-86
2022/08/28 10:49:00;;;;;;;7.88;6.65;;;28.70;68.20;;;;;;4933771;28;20216;-89
2022/08/28 10:51:35;;;;;;;10.00;6.43;;;28.80;68.20;;;;;;4935838;28;20253;-89
2022/08/28 10:54:21;;;;;;;10.18;6.50;;;28.90;67.80;;;;;;4945676;28;20209;-88
2022/08/28 10:56:55;;;;;;;7.97;5.63;;;29.20;67.30;;;;;;4935283;28;20209;-90
2022/08/28 10:59:27;;;;;;;9.07;6.32;;;29.20;67.90;;;;;;4933024;28;20214;-90
2022/08/28 11:02:00;;;;;;;7.75;6.35;;;29.20;67.70;;;;;;4930800;28;20225;-88
2022/08/28 11:04:30;;;;;;;9.15;5.70;;;29.10;67.40;;;;;;4931957;28;21280;-91
2022/08/28 11:07:04;;;;;;;9.15;5.45;;;29.10;67.30;;;;;;4931833;28;20257;-87
2022/08/28 11:09:36;;;;;;;6.78;5.03;;;29.20;65.60;;;;;;4935228;28;20193;-88
2022/08/28 11:12:09;;;;;;;8.25;5.80;;;29.30;64.30;;;;;;4942843;28;20847;-88
2022/08/28 11:14:40;;;;;;;12.10;5.80;;;29.30;64.10;;;;;;4930794;28;20213;-87
2022/08/28 11:17:39;;;;;;;8.90;6.40;;;29.40;64.40;;;;;;4931114;28;20252;-88
2022/08/28 11:20:14;;;;;;;7.97;5.70;;;29.50;65.10;;;;;;4933276;28;20209;-90
2022/08/28 11:22:49;;;;;;;7.13;5.70;;;29.50;64.60;;;;;;4942821;28;20812;-89
2022/08/28 11:25:22;;;;;;;11.52;5.75;;;29.50;64.90;;;;;;4939542;28;20253;-91
2022/08/28 11:28:17;;;;;;;10.00;5.65;;;29.70;63.00;;;;;;4926356;28;20205;-86
2022/08/28 11:30:48;;;;;;;6.85;5.63;;;29.80;63.90;;;;;;4937917;28;20210;-89
2022/08/28 11:33:39;;;;;;;7.05;5.65;;;29.80;64.50;;;;;;4945385;28;20232;-88
2022/08/28 11:36:33;;;;;;;13.63;5.93;;;29.70;64.60;;;;;;4941916;28;20222;-90
2022/08/28 11:39:06;;;;;;;6.25;5.65;;;29.80;64.90;;;;;;4921303;28;20411;-87
2022/08/28 11:41:39;;;;;;;12.88;5.95;;;29.90;64.10;;;;;;4925102;28;20618;-88
2022/08/28 11:44:27;;;;;;;7.85;5.95;;;30.00;63.50;;;;;;4926310;28;20321;-89
2022/08/28 11:47:42;;;;;;;8.60;5.47;;;30.10;63.40;;;;;;4934163;28;20649;-88
2022/08/28 11:50:19;;;;;;;8.95;5.35;;;30.20;62.70;;;;;;4937382;28;20220;-90
2022/08/28 11:53:16;;;;;;;6.65;4.85;;;30.30;61.80;;;;;;4934856;28;20252;-86
2022/08/28 11:56:09;;;;;;;7.32;4.57;;;30.50;60.50;;;;;;4939505;28;20206;-88
2022/08/28 11:58:45;;;;;;;8.35;5.60;;;30.60;57.20;;;;;;4911458;29;20731;-87
2022/08/28 12:01:30;;;;;;;8.25;5.15;;;30.90;58.10;;;;;;4915647;29;20219;-88
2022/08/28 12:04:03;;;;;;;8.82;5.45;;;31.20;58.70;;;;;;4912487;29;20849;-88
2022/08/28 12:06:54;;;;;;;7.55;5.63;;;31.20;60.10;;;;;;4924877;28;20198;-87
2022/08/28 12:09:39;;;;;;;11.10;5.97;;;31.00;60.10;;;;;;4916109;29;20658;-86
2022/08/28 12:12:54;;;;;;;6.30;5.45;;;30.90;60.60;;;;;;4925271;29;20446;-88
2022/08/28 12:15:41;;;;;;;10.32;5.88;;;30.60;60.70;;;;;;4922571;29;20207;-87
2022/08/28 12:18:55;;;;;;;7.32;5.15;;;30.70;60.90;;;;;;4901608;29;20215;-89
2022/08/28 12:21:28;;;;;;;9.25;5.47;;;31.00;57.40;;;;;;4933620;29;20210;-88
2022/08/28 12:24:02;;;;;;;6.80;4.75;;;31.00;55.40;;;;;;4932683;29;20738;-87
2022/08/28 12:26:47;;;;;;;10.00;4.55;;;31.00;54.20;;;;;;4932870;29;20586;-86
2022/08/28 12:29:29;;;;;;;6.38;4.63;;;31.00;53.20;;;;;;4929811;29;20473;-87
2022/08/28 12:32:29;;;;;;;9.05;5.20;;;31.10;52.90;;;;;;4913940;29;20214;-89
2022/08/28 12:35:15;;;;;;;6.95;5.28;;;31.20;52.90;;;;;;4934842;28;20540;-85
2022/08/28 12:37:46;;;;;;;9.45;5.38;;;31.20;52.70;;;;;;4949037;28;20209;-88
2022/08/28 12:40:23;;;;;;;9.77;5.28;;;31.40;53.20;;;;;;4949733;28;20485;-87
2022/08/28 12:42:55;;;;;;;9.60;5.38;;;31.40;52.80;;;;;;4948975;28;20233;-87
2022/08/28 12:45:29;;;;;;;8.68;5.03;;;31.40;51.90;;;;;;4940510;28;20202;-87
2022/08/28 12:48:01;;;;;;;6.20;5.00;;;31.50;52.90;;;;;;4934070;28;20214;-88
2022/08/28 12:50:34;;;;;;;8.38;4.97;;;31.50;53.00;;;;;;4937974;28;20216;-86
2022/08/28 12:53:07;;;;;;;10.77;5.45;;;31.50;53.70;;;;;;4930015;28;20547;-87
2022/08/28 12:55:38;;;;;;;12.95;5.72;;;31.50;52.50;;;;;;4935070;28;20206;-87
2022/08/28 12:58:12;;;;;;;7.20;5.32;;;31.60;52.80;;;;;;4929300;28;20750;-85
2022/08/28 13:00:53;;;;;;;6.70;5.07;;;31.70;53.80;;;;;;4931055;28;20209;-88
2022/08/28 13:03:28;;;;;;;9.45;5.13;;;31.80;53.30;;;;;;4939117;28;20232;-88
2022/08/28 13:06:02;;;;;;;8.60;5.78;;;31.90;53.50;;;;;;4936656;28;20216;-85
2022/08/28 13:08:41;;;;;;;8.15;5.45;;;31.90;53.40;;;;;;4930401;28;20280;-86
2022/08/28 13:11:10;;;;;;;7.57;5.63;;;32.10;53.60;;;;;;4928570;28;20204;-88
2022/08/28 13:13:49;;;;;;;9.75;5.13;;;32.10;52.30;;;;;;4931018;28;20217;-86
2022/08/28 13:16:39;;;;;;;7.53;5.53;;;32.10;52.10;;;;;;4933813;28;20311;-91
2022/08/28 13:19:24;;;;;;;8.60;5.97;;;32.20;52.20;;;;;;4929752;28;20638;-90
2022/08/28 13:21:59;;;;;;;10.45;6.18;;;32.10;51.30;;;;;;4930777;28;20197;-86
2022/08/28 13:24:46;;;;;;;7.85;5.38;;;32.00;50.90;;;;;;4926875;28;20215;-90